sensor_id;sensor_type;location;lat;lon;timestamp;pressure;altitude;pressure_sealevel;temperature;humidity
73558;BME280;61829;53.286;10.434;2024-01-10T00:01:05;103311.63;;;-5.88;88.01
73558;BME280;61829;53.286;10.434;2024-01-10T00:03:50;103294.16;;;-5.89;88.16
73558;BME280;61829;53.286;10.434;2024-01-10T00:06:35;103298.50;;;-5.89;88.20
73558;BME280;61829;53.286;10.434;2024-01-10T00:09:20;103284.56;;;-5.93;87.82
73558;BME280;61829;53.286;10.434;2024-01-10T00:12:04;103287.25;;;-5.97;87.30
73558;BME280;61829;53.286;10.434;2024-01-10T00:14:49;103289.97;;;-6.03;87.18
73558;BME280;61829;53.286;10.434;2024-01-10T00:17:33;103281.25;;;-6.07;86.26
73558;BME280;61829;53.286;10.434;2024-01-10T00:20:18;103292.69;;;-6.11;86.66
73558;BME280;61829;53.286;10.434;2024-01-10T00:23:02;103280.47;;;-6.15;85.91
73558;BME280;61829;53.286;10.434;2024-01-10T00:25:47;103275.28;;;-6.20;85.82
73558;BME280;61829;53.286;10.434;2024-01-10T00:28:31;103273.56;;;-6.24;85.85
73558;BME280;61829;53.286;10.434;2024-01-10T00:31:16;103274.47;;;-6.26;85.76
73558;BME280;61829;53.286;10.434;2024-01-10T00:34:00;103276.22;;;-6.28;85.73
73558;BME280;61829;53.286;10.434;2024-01-10T00:36:45;103276.31;;;-6.35;85.25
73558;BME280;61829;53.286;10.434;2024-01-10T00:39:29;103277.22;;;-6.39;84.55
73558;BME280;61829;53.286;10.434;2024-01-10T00:42:13;103259.75;;;-6.43;84.73
73558;BME280;61829;53.286;10.434;2024-01-10T00:44:58;103275.53;;;-6.44;84.41
73558;BME280;61829;53.286;10.434;2024-01-10T00:47:42;103274.69;;;-6.46;84.44
73558;BME280;61829;53.286;10.434;2024-01-10T00:50:26;103278.19;;;-6.49;84.81
73558;BME280;61829;53.286;10.434;2024-01-10T00:53:12;103265.97;;;-6.50;84.17
73558;BME280;61829;53.286;10.434;2024-01-10T00:55:57;103269.50;;;-6.52;83.88
73558;BME280;61829;53.286;10.434;2024-01-10T00:58:42;103273.88;;;-6.55;84.26
73558;BME280;61829;53.286;10.434;2024-01-10T01:01:26;103276.53;;;-6.56;84.21
73558;BME280;61829;53.286;10.434;2024-01-10T01:04:10;103280.00;;;-6.57;84.52
73558;BME280;61829;53.286;10.434;2024-01-10T01:06:54;103278.28;;;-6.58;84.35
73558;BME280;61829;53.286;10.434;2024-01-10T01:09:39;103277.38;;;-6.57;84.69
73558;BME280;61829;53.286;10.434;2024-01-10T01:12:23;103285.25;;;-6.57;84.48
73558;BME280;61829;53.286;10.434;2024-01-10T01:15:08;103278.28;;;-6.57;85.11
73558;BME280;61829;53.286;10.434;2024-01-10T01:17:52;103284.38;;;-6.55;84.66
73558;BME280;61829;53.286;10.434;2024-01-10T01:20:36;103288.75;;;-6.53;84.69
73558;BME280;61829;53.286;10.434;2024-01-10T01:23:21;103290.47;;;-6.54;85.33
73558;BME280;61829;53.286;10.434;2024-01-10T01:26:05;103284.41;;;-6.56;85.67
73558;BME280;61829;53.286;10.434;2024-01-10T01:28:50;103283.53;;;-6.57;86.33
73558;BME280;61829;53.286;10.434;2024-01-10T01:31:35;103283.53;;;-6.57;86.49
73558;BME280;61829;53.286;10.434;2024-01-10T01:34:19;103292.19;;;-6.51;86.63
73558;BME280;61829;53.286;10.434;2024-01-10T01:37:04;103293.09;;;-6.51;87.16
73558;BME280;61829;53.286;10.434;2024-01-10T01:39:52;103290.44;;;-6.48;86.56
73558;BME280;61829;53.286;10.434;2024-01-10T01:42:41;103291.31;;;-6.47;86.76
73558;BME280;61829;53.286;10.434;2024-01-10T01:45:25;103289.53;;;-6.45;86.66
73558;BME280;61829;53.286;10.434;2024-01-10T01:48:11;103282.53;;;-6.45;86.38
73558;BME280;61829;53.286;10.434;2024-01-10T01:50:57;103301.75;;;-6.46;86.93
73558;BME280;61829;53.286;10.434;2024-01-10T01:53:44;103296.50;;;-6.43;86.83
73558;BME280;61829;53.286;10.434;2024-01-10T01:56:29;103286.00;;;-6.43;86.82
73558;BME280;61829;53.286;10.434;2024-01-10T01:59:14;103286.91;;;-6.42;86.43
73558;BME280;61829;53.286;10.434;2024-01-10T02:02:00;103283.38;;;-6.43;86.22
73558;BME280;61829;53.286;10.434;2024-01-10T02:04:47;103284.28;;;-6.44;86.29
73558;BME280;61829;53.286;10.434;2024-01-10T02:07:32;103275.50;;;-6.43;86.39
73558;BME280;61829;53.286;10.434;2024-01-10T02:10:17;103285.09;;;-6.40;86.05
73558;BME280;61829;53.286;10.434;2024-01-10T02:13:02;103284.25;;;-6.41;86.55
73558;BME280;61829;53.286;10.434;2024-01-10T02:15:47;103280.72;;;-6.40;85.94
73558;BME280;61829;53.286;10.434;2024-01-10T02:18:31;103280.72;;;-6.40;86.38
73558;BME280;61829;53.286;10.434;2024-01-10T02:21:20;103279.03;;;-6.42;86.41
73558;BME280;61829;53.286;10.434;2024-01-10T02:24:04;103267.66;;;-6.44;86.25
73558;BME280;61829;53.286;10.434;2024-01-10T02:26:50;103273.78;;;-6.44;86.76
73558;BME280;61829;53.286;10.434;2024-01-10T02:29:34;103266.81;;;-6.45;87.16
73558;BME280;61829;53.286;10.434;2024-01-10T02:32:19;103267.69;;;-6.49;87.22
73558;BME280;61829;53.286;10.434;2024-01-10T02:35:03;103264.22;;;-6.48;87.55
73558;BME280;61829;53.286;10.434;2024-01-10T02:37:49;103263.38;;;-6.53;87.75
73558;BME280;61829;53.286;10.434;2024-01-10T02:40:35;103255.63;;;-6.62;87.98
73558;BME280;61829;53.286;10.434;2024-01-10T02:43:20;103258.22;;;-6.64;88.78
73558;BME280;61829;53.286;10.434;2024-01-10T02:46:04;103253.00;;;-6.62;88.78
73558;BME280;61829;53.286;10.434;2024-01-10T02:48:49;103260.78;;;-6.56;88.84
73558;BME280;61829;53.286;10.434;2024-01-10T02:51:34;103260.75;;;-6.55;88.88
73558;BME280;61829;53.286;10.434;2024-01-10T02:54:19;103254.69;;;-6.57;89.06
73558;BME280;61829;53.286;10.434;2024-01-10T02:57:03;103259.91;;;-6.53;88.97
73558;BME280;61829;53.286;10.434;2024-01-10T02:59:49;103266.03;;;-6.58;88.64
73558;BME280;61829;53.286;10.434;2024-01-10T03:02:33;103256.41;;;-6.56;89.09
73558;BME280;61829;53.286;10.434;2024-01-10T03:05:17;103246.75;;;-6.50;89.11
73558;BME280;61829;53.286;10.434;2024-01-10T03:08:02;103250.25;;;-6.50;89.03
73558;BME280;61829;53.286;10.434;2024-01-10T03:10:48;103245.84;;;-6.48;88.88
73558;BME280;61829;53.286;10.434;2024-01-10T03:13:33;103240.56;;;-6.45;88.43
73558;BME280;61829;53.286;10.434;2024-01-10T03:16:17;103248.41;;;-6.42;88.66
73558;BME280;61829;53.286;10.434;2024-01-10T03:19:03;103237.91;;;-6.43;88.11
73558;BME280;61829;53.286;10.434;2024-01-10T03:21:48;103235.28;;;-6.42;87.89
73558;BME280;61829;53.286;10.434;2024-01-10T03:24:32;103233.66;;;-6.52;87.97
73558;BME280;61829;53.286;10.434;2024-01-10T03:27:17;103225.81;;;-6.53;88.41
73558;BME280;61829;53.286;10.434;2024-01-10T03:30:01;103221.44;;;-6.53;88.01
73558;BME280;61829;53.286;10.434;2024-01-10T03:32:46;103227.59;;;-6.59;87.80
73558;BME280;61829;53.286;10.434;2024-01-10T03:35:31;103231.09;;;-6.58;88.14
73558;BME280;61829;53.286;10.434;2024-01-10T03:38:15;103231.91;;;-6.55;87.68
73558;BME280;61829;53.286;10.434;2024-01-10T03:41:00;103223.19;;;-6.55;87.80
73558;BME280;61829;53.286;10.434;2024-01-10T03:43:46;103232.81;;;-6.57;87.82
73558;BME280;61829;53.286;10.434;2024-01-10T03:46:31;103222.31;;;-6.57;87.21
73558;BME280;61829;53.286;10.434;2024-01-10T03:49:16;103222.34;;;-6.59;87.81
73558;BME280;61829;53.286;10.434;2024-01-10T03:52:01;103225.81;;;-6.55;87.78
73558;BME280;61829;53.286;10.434;2024-01-10T03:54:45;103217.97;;;-6.57;87.54
73558;BME280;61829;53.286;10.434;2024-01-10T03:57:29;103224.97;;;-6.59;87.36
73558;BME280;61829;53.286;10.434;2024-01-10T04:00:14;103228.50;;;-6.61;87.12
73558;BME280;61829;53.286;10.434;2024-01-10T04:02:58;103233.75;;;-6.63;87.36
73558;BME280;61829;53.286;10.434;2024-01-10T04:05:43;103225.88;;;-6.61;87.11
73558;BME280;61829;53.286;10.434;2024-01-10T04:08:28;103237.25;;;-6.64;87.63
73558;BME280;61829;53.286;10.434;2024-01-10T04:11:13;103231.19;;;-6.67;87.43
73558;BME280;61829;53.286;10.434;2024-01-10T04:13:57;103235.53;;;-6.65;87.38
73558;BME280;61829;53.286;10.434;2024-01-10T04:16:41;103245.13;;;-6.65;87.36
73558;BME280;61829;53.286;10.434;2024-01-10T04:19:26;103242.50;;;-6.65;87.17
73558;BME280;61829;53.286;10.434;2024-01-10T04:22:10;103246.00;;;-6.63;87.64
73558;BME280;61829;53.286;10.434;2024-01-10T04:28:35;103242.50;;;-6.64;86.97
73558;BME280;61829;53.286;10.434;2024-01-10T04:31:23;103244.25;;;-6.64;86.72
73558;BME280;61829;53.286;10.434;2024-01-10T04:34:07;103245.13;;;-6.65;87.03
73558;BME280;61829;53.286;10.434;2024-01-10T04:36:51;103240.84;;;-6.74;86.52
73558;BME280;61829;53.286;10.434;2024-01-10T04:39:36;103237.41;;;-6.79;87.24
73558;BME280;61829;53.286;10.434;2024-01-10T04:42:21;103230.41;;;-6.80;87.29
73558;BME280;61829;53.286;10.434;2024-01-10T04:45:06;103232.13;;;-6.78;86.76
73558;BME280;61829;53.286;10.434;2024-01-10T04:47:51;103224.28;;;-6.76;86.11
73558;BME280;61829;53.286;10.434;2024-01-10T04:50:36;103229.53;;;-6.82;86.61
73558;BME280;61829;53.286;10.434;2024-01-10T04:53:20;103231.31;;;-6.83;86.27
73558;BME280;61829;53.286;10.434;2024-01-10T04:56:06;103224.31;;;-6.82;86.46
73558;BME280;61829;53.286;10.434;2024-01-10T05:02:26;103218.16;;;-6.80;86.16
73558;BME280;61829;53.286;10.434;2024-01-10T05:05:10;103226.00;;;-6.75;85.96
73558;BME280;61829;53.286;10.434;2024-01-10T05:07:54;103219.00;;;-6.74;85.13
73558;BME280;61829;53.286;10.434;2024-01-10T05:11:10;103208.56;;;-6.79;84.84
73558;BME280;61829;53.286;10.434;2024-01-10T05:13:55;103212.09;;;-6.82;84.81
73558;BME280;61829;53.286;10.434;2024-01-10T05:16:39;103211.25;;;-6.88;85.20
73558;BME280;61829;53.286;10.434;2024-01-10T05:19:24;103210.47;;;-6.95;85.30
73558;BME280;61829;53.286;10.434;2024-01-10T05:22:39;103201.78;;;-7.03;85.44
73558;BME280;61829;53.286;10.434;2024-01-10T05:25:24;103211.41;;;-7.05;85.59
73558;BME280;61829;53.286;10.434;2024-01-10T05:28:09;103207.06;;;-7.06;85.46
73558;BME280;61829;53.286;10.434;2024-01-10T05:30:54;103219.25;;;-7.01;85.70
73558;BME280;61829;53.286;10.434;2024-01-10T05:33:38;103221.06;;;-7.07;85.65
73558;BME280;61829;53.286;10.434;2024-01-10T05:36:23;103224.50;;;-7.05;85.63
73558;BME280;61829;53.286;10.434;2024-01-10T05:39:08;103219.31;;;-7.10;85.11
73558;BME280;61829;53.286;10.434;2024-01-10T05:41:52;103222.88;;;-7.20;85.17
73558;BME280;61829;53.286;10.434;2024-01-10T05:44:36;103214.19;;;-7.25;84.96
73558;BME280;61829;53.286;10.434;2024-01-10T05:47:21;103219.44;;;-7.27;84.56
73558;BME280;61829;53.286;10.434;2024-01-10T05:50:06;103214.25;;;-7.30;84.12
73558;BME280;61829;53.286;10.434;2024-01-10T05:52:50;103222.97;;;-7.32;84.14
73558;BME280;61829;53.286;10.434;2024-01-10T05:55:34;103222.13;;;-7.37;84.06
73558;BME280;61829;53.286;10.434;2024-01-10T05:58:21;103216.00;;;-7.35;83.85
73558;BME280;61829;53.286;10.434;2024-01-10T06:01:05;103221.28;;;-7.38;84.38
73558;BME280;61829;53.286;10.434;2024-01-10T06:03:54;103224.75;;;-7.39;84.25
73558;BME280;61829;53.286;10.434;2024-01-10T06:06:38;103224.81;;;-7.45;84.84
73558;BME280;61829;53.286;10.434;2024-01-10T06:09:23;103231.84;;;-7.55;85.99
73558;BME280;61829;53.286;10.434;2024-01-10T06:12:07;103231.84;;;-7.55;86.67
73558;BME280;61829;53.286;10.434;2024-01-10T06:14:51;103227.53;;;-7.60;87.92
73558;BME280;61829;53.286;10.434;2024-01-10T06:17:36;103224.88;;;-7.56;88.17
73558;BME280;61829;53.286;10.434;2024-01-10T06:20:20;103226.59;;;-7.52;88.33
73558;BME280;61829;53.286;10.434;2024-01-10T06:23:05;103226.50;;;-7.36;88.41
73558;BME280;61829;53.286;10.434;2024-01-10T06:25:50;103219.50;;;-7.33;88.02
73558;BME280;61829;53.286;10.434;2024-01-10T06:28:34;103217.69;;;-7.26;88.24
73558;BME280;61829;53.286;10.434;2024-01-10T06:31:19;103224.72;;;-7.30;88.61
73558;BME280;61829;53.286;10.434;2024-01-10T06:34:04;103228.16;;;-7.28;88.52
73558;BME280;61829;53.286;10.434;2024-01-10T06:36:50;103217.63;;;-7.17;88.47
73558;BME280;61829;53.286;10.434;2024-01-10T06:39:35;103220.19;;;-7.11;88.76
73558;BME280;61829;53.286;10.434;2024-01-10T06:42:20;103214.09;;;-7.11;88.75
73558;BME280;61829;53.286;10.434;2024-01-10T06:45:05;103221.06;;;-7.07;88.59
73558;BME280;61829;53.286;10.434;2024-01-10T06:47:52;103219.28;;;-7.07;88.59
73558;BME280;61829;53.286;10.434;2024-01-10T06:50:36;103222.75;;;-7.03;88.86
73558;BME280;61829;53.286;10.434;2024-01-10T06:53:21;103224.50;;;-7.05;88.42
73558;BME280;61829;53.286;10.434;2024-01-10T06:56:06;103214.88;;;-7.03;88.81
73558;BME280;61829;53.286;10.434;2024-01-10T06:58:51;103224.44;;;-6.94;88.70
73558;BME280;61829;53.286;10.434;2024-01-10T07:01:36;103215.66;;;-6.92;88.54
73558;BME280;61829;53.286;10.434;2024-01-10T07:04:20;103215.66;;;-6.92;88.48
73558;BME280;61829;53.286;10.434;2024-01-10T07:07:07;103219.19;;;-6.94;88.11
73558;BME280;61829;53.286;10.434;2024-01-10T07:09:52;103219.16;;;-6.90;87.96
73558;BME280;61829;53.286;10.434;2024-01-10T07:12:36;103223.56;;;-6.95;88.11
73558;BME280;61829;53.286;10.434;2024-01-10T07:15:21;103216.53;;;-6.91;87.86
73558;BME280;61829;53.286;10.434;2024-01-10T07:18:06;103214.78;;;-6.89;88.26
73558;BME280;61829;53.286;10.434;2024-01-10T07:20:51;103214.78;;;-6.89;88.28
73558;BME280;61829;53.286;10.434;2024-01-10T07:23:37;103220.03;;;-6.89;88.15
73558;BME280;61829;53.286;10.434;2024-01-10T07:26:25;103223.53;;;-6.90;88.15
73558;BME280;61829;53.286;10.434;2024-01-10T07:29:11;103221.81;;;-6.94;88.65
73558;BME280;61829;53.286;10.434;2024-01-10T07:31:56;103226.19;;;-6.93;88.53
73558;BME280;61829;53.286;10.434;2024-01-10T07:34:40;103222.66;;;-6.92;88.21
73558;BME280;61829;53.286;10.434;2024-01-10T07:37:26;103224.41;;;-6.90;88.67
73558;BME280;61829;53.286;10.434;2024-01-10T07:40:11;103228.84;;;-7.01;88.59
73558;BME280;61829;53.286;10.434;2024-01-10T07:42:56;103225.31;;;-6.97;88.61
73558;BME280;61829;53.286;10.434;2024-01-10T07:45:40;103234.03;;;-6.96;88.54
73558;BME280;61829;53.286;10.434;2024-01-10T07:48:24;103239.28;;;-6.96;88.94
73558;BME280;61829;53.286;10.434;2024-01-10T07:51:09;103236.69;;;-7.00;88.88
73558;BME280;61829;53.286;10.434;2024-01-10T07:53:54;103232.28;;;-6.93;88.97
73558;BME280;61829;53.286;10.434;2024-01-10T07:56:38;103238.34;;;-6.85;89.12
73558;BME280;61829;53.286;10.434;2024-01-10T07:59:24;103235.69;;;-6.83;88.66
73558;BME280;61829;53.286;10.434;2024-01-10T08:02:09;103235.69;;;-6.82;89.11
73558;BME280;61829;53.286;10.434;2024-01-10T08:04:54;103233.00;;;-6.75;89.32
73558;BME280;61829;53.286;10.434;2024-01-10T08:07:39;103234.69;;;-6.71;89.44
73558;BME280;61829;53.286;10.434;2024-01-10T08:10:23;103233.91;;;-6.78;89.47
73558;BME280;61829;53.286;10.434;2024-01-10T08:13:08;103227.72;;;-6.74;89.15
73558;BME280;61829;53.286;10.434;2024-01-10T08:15:52;103225.09;;;-6.74;89.76
73558;BME280;61829;53.286;10.434;2024-01-10T08:18:38;103228.56;;;-6.69;89.88
73558;BME280;61829;53.286;10.434;2024-01-10T08:21:23;103237.38;;;-6.76;89.69
73558;BME280;61829;53.286;10.434;2024-01-10T08:24:07;103234.63;;;-6.65;89.66
73558;BME280;61829;53.286;10.434;2024-01-10T08:26:52;103232.00;;;-6.65;89.67
73558;BME280;61829;53.286;10.434;2024-01-10T08:29:36;103242.47;;;-6.61;90.01
73558;BME280;61829;53.286;10.434;2024-01-10T08:32:22;103237.25;;;-6.62;89.98
73558;BME280;61829;53.286;10.434;2024-01-10T08:35:06;103245.94;;;-6.60;89.87
73558;BME280;61829;53.286;10.434;2024-01-10T08:37:53;103233.66;;;-6.52;90.26
73558;BME280;61829;53.286;10.434;2024-01-10T08:40:37;103233.56;;;-6.44;90.41
73558;BME280;61829;53.286;10.434;2024-01-10T08:43:22;103232.63;;;-6.39;90.21
73558;BME280;61829;53.286;10.434;2024-01-10T08:46:08;103235.16;;;-6.29;89.82
73558;BME280;61829;53.286;10.434;2024-01-10T08:48:53;103242.00;;;-6.16;89.86
73558;BME280;61829;53.286;10.434;2024-01-10T08:51:37;103247.16;;;-6.07;90.23
73558;BME280;61829;53.286;10.434;2024-01-10T08:54:22;103248.84;;;-6.03;89.73
73558;BME280;61829;53.286;10.434;2024-01-10T08:57:06;103248.75;;;-5.95;90.17
73558;BME280;61829;53.286;10.434;2024-01-10T08:59:51;103252.28;;;-5.96;89.75
73558;BME280;61829;53.286;10.434;2024-01-10T09:02:37;103247.06;;;-6.01;90.06
73558;BME280;61829;53.286;10.434;2024-01-10T09:05:23;103247.72;;;-5.87;90.08
73558;BME280;61829;53.286;10.434;2024-01-10T09:08:07;103258.16;;;-5.80;90.08
73558;BME280;61829;53.286;10.434;2024-01-10T09:10:53;103254.47;;;-5.67;90.06
73558;BME280;61829;53.286;10.434;2024-01-10T09:13:37;103254.31;;;-5.55;89.50
73558;BME280;61829;53.286;10.434;2024-01-10T09:16:24;103259.41;;;-5.43;89.30
73558;BME280;61829;53.286;10.434;2024-01-10T09:19:08;103248.81;;;-5.36;89.11
73558;BME280;61829;53.286;10.434;2024-01-10T09:21:53;103243.50;;;-5.33;88.38
73558;BME280;61829;53.286;10.434;2024-01-10T09:24:38;103247.00;;;-5.31;88.21
73558;BME280;61829;53.286;10.434;2024-01-10T09:27:22;103240.72;;;-5.23;87.99
73558;BME280;61829;53.286;10.434;2024-01-10T09:30:07;103240.69;;;-5.21;88.36
73558;BME280;61829;53.286;10.434;2024-01-10T09:32:53;103234.41;;;-5.12;87.82
73558;BME280;61829;53.286;10.434;2024-01-10T09:35:37;103224.84;;;-5.16;87.73
73558;BME280;61829;53.286;10.434;2024-01-10T09:38:21;103226.56;;;-5.15;87.75
73558;BME280;61829;53.286;10.434;2024-01-10T09:41:06;103222.97;;;-5.08;87.43
73558;BME280;61829;53.286;10.434;2024-01-10T09:43:51;103221.97;;;-5.00;86.94
73558;BME280;61829;53.286;10.434;2024-01-10T09:46:38;103215.84;;;-5.00;87.00
73558;BME280;61829;53.286;10.434;2024-01-10T09:49:25;103215.78;;;-4.99;86.65
73558;BME280;61829;53.286;10.434;2024-01-10T09:52:26;103223.69;;;-4.99;86.97
73558;BME280;61829;53.286;10.434;2024-01-10T09:55:13;103223.66;;;-4.97;86.59
73558;BME280;61829;53.286;10.434;2024-01-10T09:57:57;103228.06;;;-4.99;86.93
73558;BME280;61829;53.286;10.434;2024-01-10T10:00:43;103218.34;;;-4.92;86.67
73558;BME280;61829;53.286;10.434;2024-01-10T10:03:27;103219.84;;;-4.79;87.16
73558;BME280;61829;53.286;10.434;2024-01-10T10:06:16;103205.72;;;-4.72;86.50
73558;BME280;61829;53.286;10.434;2024-01-10T10:09:20;103205.47;;;-4.15;84.61
73558;BME280;61829;53.286;10.434;2024-01-10T10:12:05;103203.41;;;-3.99;83.31
73558;BME280;61829;53.286;10.434;2024-01-10T10:14:49;103198.16;;;-3.99;82.08
73558;BME280;61829;53.286;10.434;2024-01-10T10:17:33;103195.50;;;-3.99;81.86
73558;BME280;61829;53.286;10.434;2024-01-10T10:23:09;103192.47;;;-3.80;81.78
73558;BME280;61829;53.286;10.434;2024-01-10T10:26:16;103200.28;;;-3.76;81.71
73558;BME280;61829;53.286;10.434;2024-01-10T10:29:05;103191.66;;;-4.24;82.69
73558;BME280;61829;53.286;10.434;2024-01-10T10:31:49;103184.81;;;-4.35;83.55
73558;BME280;61829;53.286;10.434;2024-01-10T10:34:34;103184.03;;;-4.38;83.35
73558;BME280;61829;53.286;10.434;2024-01-10T10:37:19;103190.16;;;-4.38;83.62
73558;BME280;61829;53.286;10.434;2024-01-10T10:40:05;103186.69;;;-4.40;83.96
73558;BME280;61829;53.286;10.434;2024-01-10T10:43:23;103199.22;;;-4.54;84.38
73558;BME280;61829;53.286;10.434;2024-01-10T10:46:13;103193.03;;;-4.52;84.46
73558;BME280;61829;53.286;10.434;2024-01-10T10:48:59;103197.44;;;-4.52;83.96
73558;BME280;61829;53.286;10.434;2024-01-10T10:51:50;103202.59;;;-4.47;84.30
73558;BME280;61829;53.286;10.434;2024-01-10T10:54:36;103206.03;;;-4.42;84.80
73558;BME280;61829;53.286;10.434;2024-01-10T10:57:25;103206.88;;;-4.40;84.91
73558;BME280;61829;53.286;10.434;2024-01-10T11:00:12;103213.91;;;-4.42;84.08
73558;BME280;61829;53.286;10.434;2024-01-10T11:03:00;103216.72;;;-4.52;84.19
73558;BME280;61829;53.286;10.434;2024-01-10T11:05:46;103220.25;;;-4.53;84.47
73558;BME280;61829;53.286;10.434;2024-01-10T11:08:50;103212.31;;;-4.51;84.28
73558;BME280;61829;53.286;10.434;2024-01-10T11:12:06;103212.25;;;-4.48;84.55
73558;BME280;61829;53.286;10.434;2024-01-10T11:21:06;103204.19;;;-4.39;84.51
73558;BME280;61829;53.286;10.434;2024-01-10T11:23:58;103213.78;;;-4.36;84.55
73558;BME280;61829;53.286;10.434;2024-01-10T11:26:45;103205.09;;;-4.38;84.46
73558;BME280;61829;53.286;10.434;2024-01-10T11:29:30;103204.09;;;-4.33;84.56
73558;BME280;61829;53.286;10.434;2024-01-10T11:32:22;103201.22;;;-4.22;84.43
73558;BME280;61829;53.286;10.434;2024-01-10T11:35:29;103203.75;;;-4.16;84.10
73558;BME280;61829;53.286;10.434;2024-01-10T11:38:16;103203.78;;;-4.17;84.47
73558;BME280;61829;53.286;10.434;2024-01-10T11:41:00;103198.38;;;-4.10;84.77
73558;BME280;61829;53.286;10.434;2024-01-10T11:46:58;103196.53;;;-4.06;84.65
73558;BME280;61829;53.286;10.434;2024-01-10T11:49:54;103195.72;;;-4.10;84.65
73558;BME280;61829;53.286;10.434;2024-01-10T11:52:40;103197.53;;;-4.12;84.82
73558;BME280;61829;53.286;10.434;2024-01-10T11:55:50;103188.78;;;-4.14;84.71
73558;BME280;61829;53.286;10.434;2024-01-10T11:59:01;103185.19;;;-4.10;84.36
73558;BME280;61829;53.286;10.434;2024-01-10T12:01:49;103183.44;;;-4.11;84.71
73558;BME280;61829;53.286;10.434;2024-01-10T12:04:34;103182.00;;;-4.24;84.95
73558;BME280;61829;53.286;10.434;2024-01-10T12:07:19;103178.38;;;-4.20;85.32
73558;BME280;61829;53.286;10.434;2024-01-10T12:10:04;103174.72;;;-4.13;85.38
73558;BME280;61829;53.286;10.434;2024-01-10T12:13:13;103175.47;;;-4.06;85.09
73558;BME280;61829;53.286;10.434;2024-01-10T12:15:58;103169.41;;;-4.11;85.01
73558;BME280;61829;53.286;10.434;2024-01-10T12:18:43;103168.50;;;-4.09;85.13
73558;BME280;61829;53.286;10.434;2024-01-10T12:21:28;103170.13;;;-4.03;85.39
73558;BME280;61829;53.286;10.434;2024-01-10T12:24:12;103174.47;;;-4.00;85.57
73558;BME280;61829;53.286;10.434;2024-01-10T12:26:57;103166.47;;;-3.96;85.51
73558;BME280;61829;53.286;10.434;2024-01-10T12:29:42;103169.91;;;-3.92;85.26
73558;BME280;61829;53.286;10.434;2024-01-10T12:32:27;103165.47;;;-3.90;85.13
73558;BME280;61829;53.286;10.434;2024-01-10T12:35:11;103167.19;;;-3.88;85.58
73558;BME280;61829;53.286;10.434;2024-01-10T12:37:56;103155.69;;;-3.85;85.36
73558;BME280;61829;53.286;10.434;2024-01-10T12:40:41;103150.31;;;-3.80;85.43
73558;BME280;61829;53.286;10.434;2024-01-10T12:43:26;103148.66;;;-3.85;85.00
73558;BME280;61829;53.286;10.434;2024-01-10T12:46:11;103147.84;;;-3.88;85.06
73558;BME280;61829;53.286;10.434;2024-01-10T12:51:44;103151.41;;;-3.91;85.13
73558;BME280;61829;53.286;10.434;2024-01-10T12:54:31;103147.06;;;-3.92;85.10
73558;BME280;61829;53.286;10.434;2024-01-10T12:57:15;103145.28;;;-3.91;85.13
73558;BME280;61829;53.286;10.434;2024-01-10T13:00:00;103142.59;;;-3.88;85.16
73558;BME280;61829;53.286;10.434;2024-01-10T13:02:44;103144.41;;;-3.90;85.42
73558;BME280;61829;53.286;10.434;2024-01-10T13:05:31;103145.28;;;-3.90;85.02
73558;BME280;61829;53.286;10.434;2024-01-10T13:08:16;103137.28;;;-3.87;85.01
73558;BME280;61829;53.286;10.434;2024-01-10T13:11:02;103138.13;;;-3.85;85.01
73558;BME280;61829;53.286;10.434;2024-01-10T13:13:52;103129.41;;;-3.88;85.18
73558;BME280;61829;53.286;10.434;2024-01-10T13:16:36;103136.44;;;-3.87;85.27
73558;BME280;61829;53.286;10.434;2024-01-10T13:19:21;103131.16;;;-3.87;85.01
73558;BME280;61829;53.286;10.434;2024-01-10T13:22:05;103127.66;;;-3.88;85.21
73558;BME280;61829;53.286;10.434;2024-01-10T13:24:50;103117.94;;;-3.84;84.94
73558;BME280;61829;53.286;10.434;2024-01-10T13:27:35;103122.34;;;-3.85;85.29
73558;BME280;61829;53.286;10.434;2024-01-10T13:30:19;103113.53;;;-3.85;85.12
73558;BME280;61829;53.286;10.434;2024-01-10T13:33:04;103117.94;;;-3.84;85.52
73558;BME280;61829;53.286;10.434;2024-01-10T13:35:48;103121.31;;;-3.79;85.15
73558;BME280;61829;53.286;10.434;2024-01-10T13:38:33;103123.97;;;-3.80;85.41
73558;BME280;61829;53.286;10.434;2024-01-10T13:41:22;103115.16;;;-3.79;85.38
73558;BME280;61829;53.286;10.434;2024-01-10T13:44:07;103127.53;;;-3.81;85.40
73558;BME280;61829;53.286;10.434;2024-01-10T13:46:52;103129.41;;;-3.88;85.76
73558;BME280;61829;53.286;10.434;2024-01-10T13:49:36;103127.59;;;-3.85;85.65
73558;BME280;61829;53.286;10.434;2024-01-10T13:52:20;103119.66;;;-3.83;85.98
73558;BME280;61829;53.286;10.434;2024-01-10T13:55:06;103117.06;;;-3.85;86.36
73558;BME280;61829;53.286;10.434;2024-01-10T13:57:51;103110.91;;;-3.85;86.08
73558;BME280;61829;53.286;10.434;2024-01-10T14:00:37;103115.28;;;-3.84;86.16
73558;BME280;61829;53.286;10.434;2024-01-10T14:03:24;103117.94;;;-3.84;86.10
73558;BME280;61829;53.286;10.434;2024-01-10T14:06:09;103116.06;;;-3.80;86.43
73558;BME280;61829;53.286;10.434;2024-01-10T14:08:53;103116.88;;;-3.77;86.31
73558;BME280;61829;53.286;10.434;2024-01-10T14:11:38;103119.56;;;-3.80;86.39
73558;BME280;61829;53.286;10.434;2024-01-10T14:14:23;103121.31;;;-3.79;86.41
73558;BME280;61829;53.286;10.434;2024-01-10T14:17:08;103109.94;;;-3.81;85.73
73558;BME280;61829;53.286;10.434;2024-01-10T14:19:53;103108.19;;;-3.80;85.83
73558;BME280;61829;53.286;10.434;2024-01-10T14:22:38;103117.00;;;-3.81;86.09
73558;BME280;61829;53.286;10.434;2024-01-10T14:25:22;103115.22;;;-3.81;86.34
73558;BME280;61829;53.286;10.434;2024-01-10T14:28:07;103111.59;;;-3.77;86.14
73558;BME280;61829;53.286;10.434;2024-01-10T14:31:10;103110.03;;;-3.86;86.18
73558;BME280;61829;53.286;10.434;2024-01-10T14:33:57;103106.47;;;-3.83;86.14
73558;BME280;61829;53.286;10.434;2024-01-10T14:36:42;103110.03;;;-3.84;86.27
73558;BME280;61829;53.286;10.434;2024-01-10T14:39:26;103106.47;;;-3.83;86.35